sensor_id;sensor_type;location;lat;lon;timestamp;temperature;humidity
69895;DHT22;57172;52.034;5.090;2022-09-03T00:00:35;19.30;45.10
69895;DHT22;57172;52.034;5.090;2022-09-03T00:03:11;19.20;45.20
69895;DHT22;57172;52.034;5.090;2022-09-03T00:11:11;19.20;45.70
69895;DHT22;57172;52.034;5.090;2022-09-03T00:16:44;19.10;45.60
69895;DHT22;57172;52.034;5.090;2022-09-03T00:19:16;19.10;45.70
69895;DHT22;57172;52.034;5.090;2022-09-03T00:24:46;19.10;45.80
69895;DHT22;57172;52.034;5.090;2022-09-03T00:27:19;19.00;45.80
69895;DHT22;57172;52.034;5.090;2022-09-03T00:30:00;19.00;46.00
69895;DHT22;57172;52.034;5.090;2022-09-03T00:35:03;18.90;46.00
69895;DHT22;57172;52.034;5.090;2022-09-03T00:37:33;18.90;46.20
69895;DHT22;57172;52.034;5.090;2022-09-03T00:40:06;18.80;46.30
69895;DHT22;57172;52.034;5.090;2022-09-03T00:42:59;18.80;46.50
69895;DHT22;57172;52.034;5.090;2022-09-03T00:45:39;18.70;46.50
69895;DHT22;57172;52.034;5.090;2022-09-03T00:48:25;18.70;46.50
69895;DHT22;57172;52.034;5.090;2022-09-03T00:53:59;18.60;46.60
69895;DHT22;57172;52.034;5.090;2022-09-03T00:56:43;18.60;46.80
69895;DHT22;57172;52.034;5.090;2022-09-03T01:00:03;18.50;46.90
69895;DHT22;57172;52.034;5.090;2022-09-03T01:02:29;18.50;47.00
69895;DHT22;57172;52.034;5.090;2022-09-03T01:10:15;18.50;47.10
69895;DHT22;57172;52.034;5.090;2022-09-03T01:13:03;18.50;47.10
69895;DHT22;57172;52.034;5.090;2022-09-03T01:20:51;18.50;47.10
69895;DHT22;57172;52.034;5.090;2022-09-03T01:26:27;18.50;47.30
69895;DHT22;57172;52.034;5.090;2022-09-03T01:29:02;18.50;47.30
69895;DHT22;57172;52.034;5.090;2022-09-03T01:34:25;18.50;47.20
69895;DHT22;57172;52.034;5.090;2022-09-03T01:40:12;18.60;47.30
69895;DHT22;57172;52.034;5.090;2022-09-03T01:45:50;18.60;47.10
69895;DHT22;57172;52.034;5.090;2022-09-03T01:50:59;18.70;47.00
69895;DHT22;57172;52.034;5.090;2022-09-03T01:59:30;18.80;46.90
69895;DHT22;57172;52.034;5.090;2022-09-03T02:02:06;18.70;46.90
69895;DHT22;57172;52.034;5.090;2022-09-03T02:04:34;18.70;46.90
69895;DHT22;57172;52.034;5.090;2022-09-03T02:07:02;18.70;46.90
69895;DHT22;57172;52.034;5.090;2022-09-03T02:09:30;18.70;47.00
69895;DHT22;57172;52.034;5.090;2022-09-03T02:12:07;18.70;47.00
69895;DHT22;57172;52.034;5.090;2022-09-03T02:14:37;18.70;47.00
69895;DHT22;57172;52.034;5.090;2022-09-03T02:17:04;18.70;47.00
69895;DHT22;57172;52.034;5.090;2022-09-03T02:19:33;18.60;47.00
69895;DHT22;57172;52.034;5.090;2022-09-03T02:22:04;18.60;47.10
69895;DHT22;57172;52.034;5.090;2022-09-03T02:24:31;18.60;47.20
69895;DHT22;57172;52.034;5.090;2022-09-03T02:26:58;18.60;47.20
69895;DHT22;57172;52.034;5.090;2022-09-03T02:29:25;18.50;47.30
69895;DHT22;57172;52.034;5.090;2022-09-03T02:31:53;18.50;47.40
69895;DHT22;57172;52.034;5.090;2022-09-03T02:34:20;18.50;47.30
69895;DHT22;57172;52.034;5.090;2022-09-03T02:36:47;18.40;47.50
69895;DHT22;57172;52.034;5.090;2022-09-03T02:39:15;18.40;47.50
69895;DHT22;57172;52.034;5.090;2022-09-03T02:41:42;18.40;47.50
69895;DHT22;57172;52.034;5.090;2022-09-03T02:44:26;18.40;47.50
69895;DHT22;57172;52.034;5.090;2022-09-03T02:47:01;18.40;47.60
69895;DHT22;57172;52.034;5.090;2022-09-03T02:49:29;18.30;47.70
69895;DHT22;57172;52.034;5.090;2022-09-03T02:51:57;18.30;47.60
69895;DHT22;57172;52.034;5.090;2022-09-03T02:54:26;18.30;47.60
69895;DHT22;57172;52.034;5.090;2022-09-03T02:56:59;18.30;47.60
69895;DHT22;57172;52.034;5.090;2022-09-03T02:59:26;18.30;47.70
69895;DHT22;57172;52.034;5.090;2022-09-03T03:01:54;18.30;47.80
69895;DHT22;57172;52.034;5.090;2022-09-03T03:04:21;18.20;47.70
69895;DHT22;57172;52.034;5.090;2022-09-03T03:06:49;18.20;47.70
69895;DHT22;57172;52.034;5.090;2022-09-03T03:09:18;18.20;47.70
69895;DHT22;57172;52.034;5.090;2022-09-03T03:11:45;18.20;47.70
69895;DHT22;57172;52.034;5.090;2022-09-03T03:14:12;18.10;47.80
69895;DHT22;57172;52.034;5.090;2022-09-03T03:16:39;18.10;47.80
69895;DHT22;57172;52.034;5.090;2022-09-03T03:19:06;18.10;47.90
69895;DHT22;57172;52.034;5.090;2022-09-03T03:21:33;18.10;47.90
69895;DHT22;57172;52.034;5.090;2022-09-03T03:24:01;18.00;48.10
69895;DHT22;57172;52.034;5.090;2022-09-03T03:26:28;18.00;48.10
69895;DHT22;57172;52.034;5.090;2022-09-03T03:28:56;18.00;48.30
69895;DHT22;57172;52.034;5.090;2022-09-03T03:31:24;17.90;48.20
69895;DHT22;57172;52.034;5.090;2022-09-03T03:33:52;17.90;48.30
69895;DHT22;57172;52.034;5.090;2022-09-03T03:36:21;17.90;48.40
69895;DHT22;57172;52.034;5.090;2022-09-03T03:38:48;17.80;48.50
69895;DHT22;57172;52.034;5.090;2022-09-03T03:41:20;17.80;48.50
69895;DHT22;57172;52.034;5.090;2022-09-03T03:43:52;17.80;48.80
69895;DHT22;57172;52.034;5.090;2022-09-03T03:46:21;17.80;48.80
69895;DHT22;57172;52.034;5.090;2022-09-03T03:48:50;17.70;48.80
69895;DHT22;57172;52.034;5.090;2022-09-03T03:51:17;17.70;48.80
69895;DHT22;57172;52.034;5.090;2022-09-03T03:53:45;17.70;48.90
69895;DHT22;57172;52.034;5.090;2022-09-03T03:56:14;17.70;49.00
69895;DHT22;57172;52.034;5.090;2022-09-03T03:58:42;17.70;49.00
69895;DHT22;57172;52.034;5.090;2022-09-03T04:01:12;17.70;49.10
69895;DHT22;57172;52.034;5.090;2022-09-03T04:03:40;17.60;49.10
69895;DHT22;57172;52.034;5.090;2022-09-03T04:06:08;17.60;49.20
69895;DHT22;57172;52.034;5.090;2022-09-03T04:08:38;17.60;49.40
69895;DHT22;57172;52.034;5.090;2022-09-03T04:11:07;17.60;49.50
69895;DHT22;57172;52.034;5.090;2022-09-03T04:13:36;17.60;49.60
69895;DHT22;57172;52.034;5.090;2022-09-03T04:16:10;17.50;49.60
69895;DHT22;57172;52.034;5.090;2022-09-03T04:18:37;17.50;49.60
69895;DHT22;57172;52.034;5.090;2022-09-03T04:21:11;17.50;49.90
69895;DHT22;57172;52.034;5.090;2022-09-03T04:23:40;17.50;49.90
69895;DHT22;57172;52.034;5.090;2022-09-03T04:26:10;17.40;49.80
69895;DHT22;57172;52.034;5.090;2022-09-03T04:28:37;17.40;50.00
69895;DHT22;57172;52.034;5.090;2022-09-03T04:31:06;17.40;50.00
69895;DHT22;57172;52.034;5.090;2022-09-03T04:33:35;17.40;50.00
69895;DHT22;57172;52.034;5.090;2022-09-03T04:36:12;17.30;50.20
69895;DHT22;57172;52.034;5.090;2022-09-03T04:38:41;17.30;50.30
69895;DHT22;57172;52.034;5.090;2022-09-03T04:41:10;17.30;50.30
69895;DHT22;57172;52.034;5.090;2022-09-03T04:43:37;17.30;50.30
69895;DHT22;57172;52.034;5.090;2022-09-03T04:46:06;17.30;50.30
69895;DHT22;57172;52.034;5.090;2022-09-03T04:48:42;17.30;50.50
69895;DHT22;57172;52.034;5.090;2022-09-03T04:51:10;17.30;50.40
69895;DHT22;57172;52.034;5.090;2022-09-03T04:53:40;17.20;50.40
69895;DHT22;57172;52.034;5.090;2022-09-03T04:56:22;17.20;50.40
69895;DHT22;57172;52.034;5.090;2022-09-03T04:59:01;17.20;50.70
69895;DHT22;57172;52.034;5.090;2022-09-03T05:01:30;17.20;50.60
69895;DHT22;57172;52.034;5.090;2022-09-03T05:03:58;17.20;50.60
69895;DHT22;57172;52.034;5.090;2022-09-03T05:06:26;17.20;50.70
69895;DHT22;57172;52.034;5.090;2022-09-03T05:08:54;17.20;50.80
69895;DHT22;57172;52.034;5.090;2022-09-03T05:11:23;17.10;50.70
69895;DHT22;57172;52.034;5.090;2022-09-03T05:13:52;17.10;50.90
69895;DHT22;57172;52.034;5.090;2022-09-03T05:16:21;17.10;50.90
69895;DHT22;57172;52.034;5.090;2022-09-03T05:18:53;17.10;50.90
69895;DHT22;57172;52.034;5.090;2022-09-03T05:21:21;17.10;50.90
69895;DHT22;57172;52.034;5.090;2022-09-03T05:23:49;17.10;50.90
69895;DHT22;57172;52.034;5.090;2022-09-03T05:26:28;17.10;51.10
69895;DHT22;57172;52.034;5.090;2022-09-03T05:28:57;17.10;51.00
69895;DHT22;57172;52.034;5.090;2022-09-03T05:31:26;17.10;51.00
69895;DHT22;57172;52.034;5.090;2022-09-03T05:33:55;17.20;51.00
69895;DHT22;57172;52.034;5.090;2022-09-03T05:36:32;17.20;51.10
69895;DHT22;57172;52.034;5.090;2022-09-03T05:39:00;17.10;51.10
69895;DHT22;57172;52.034;5.090;2022-09-03T05:41:27;17.20;51.20
69895;DHT22;57172;52.034;5.090;2022-09-03T05:43:56;17.20;51.10
69895;DHT22;57172;52.034;5.090;2022-09-03T05:46:29;17.20;51.10
69895;DHT22;57172;52.034;5.090;2022-09-03T05:49:00;17.20;51.20
69895;DHT22;57172;52.034;5.090;2022-09-03T05:51:28;17.20;51.10
69895;DHT22;57172;52.034;5.090;2022-09-03T05:53:56;17.30;51.20
69895;DHT22;57172;52.034;5.090;2022-09-03T05:56:25;17.30;51.10
69895;DHT22;57172;52.034;5.090;2022-09-03T05:58:55;17.30;51.00
69895;DHT22;57172;52.034;5.090;2022-09-03T06:01:24;17.30;51.00
69895;DHT22;57172;52.034;5.090;2022-09-03T06:06:26;17.40;50.90
69895;DHT22;57172;52.034;5.090;2022-09-03T06:08:57;17.40;50.90
69895;DHT22;57172;52.034;5.090;2022-09-03T06:11:25;17.40;50.90
69895;DHT22;57172;52.034;5.090;2022-09-03T06:13:56;17.40;50.90
69895;DHT22;57172;52.034;5.090;2022-09-03T06:16:23;17.40;51.00
69895;DHT22;57172;52.034;5.090;2022-09-03T06:18:58;17.50;50.90
69895;DHT22;57172;52.034;5.090;2022-09-03T06:21:25;17.50;50.90
69895;DHT22;57172;52.034;5.090;2022-09-03T06:23:54;17.50;50.80
69895;DHT22;57172;52.034;5.090;2022-09-03T06:26:26;17.60;50.80
69895;DHT22;57172;52.034;5.090;2022-09-03T06:28:55;17.60;50.80
69895;DHT22;57172;52.034;5.090;2022-09-03T06:31:23;17.70;50.70
69895;DHT22;57172;52.034;5.090;2022-09-03T06:33:50;17.70;50.70
69895;DHT22;57172;52.034;5.090;2022-09-03T06:36:20;17.80;50.60
69895;DHT22;57172;52.034;5.090;2022-09-03T06:38:54;17.80;50.60
69895;DHT22;57172;52.034;5.090;2022-09-03T06:41:24;17.90;50.60
69895;DHT22;57172;52.034;5.090;2022-09-03T06:43:53;17.90;50.50
69895;DHT22;57172;52.034;5.090;2022-09-03T06:46:22;18.00;50.50
69895;DHT22;57172;52.034;5.090;2022-09-03T06:48:50;18.00;50.40
69895;DHT22;57172;52.034;5.090;2022-09-03T06:51:19;18.10;50.40
69895;DHT22;57172;52.034;5.090;2022-09-03T06:53:48;18.20;50.40
69895;DHT22;57172;52.034;5.090;2022-09-03T06:56:18;18.30;50.30
69895;DHT22;57172;52.034;5.090;2022-09-03T06:58:46;18.40;50.20
69895;DHT22;57172;52.034;5.090;2022-09-03T07:01:16;18.50;50.00
69895;DHT22;57172;52.034;5.090;2022-09-03T07:03:44;18.60;49.90
69895;DHT22;57172;52.034;5.090;2022-09-03T07:06:17;18.60;49.70
69895;DHT22;57172;52.034;5.090;2022-09-03T07:08:45;18.70;49.50
69895;DHT22;57172;52.034;5.090;2022-09-03T07:11:14;18.80;49.30
69895;DHT22;57172;52.034;5.090;2022-09-03T07:13:43;18.90;49.10
69895;DHT22;57172;52.034;5.090;2022-09-03T07:16:13;19.00;49.10
69895;DHT22;57172;52.034;5.090;2022-09-03T07:18:41;19.10;49.00
69895;DHT22;57172;52.034;5.090;2022-09-03T07:21:14;19.20;48.80
69895;DHT22;57172;52.034;5.090;2022-09-03T07:23:42;19.30;48.60
69895;DHT22;57172;52.034;5.090;2022-09-03T07:26:12;19.40;48.40
69895;DHT22;57172;52.034;5.090;2022-09-03T07:28:40;19.50;48.30
69895;DHT22;57172;52.034;5.090;2022-09-03T07:31:34;19.60;48.20
69895;DHT22;57172;52.034;5.090;2022-09-03T07:33:59;19.70;48.20
69895;DHT22;57172;52.034;5.090;2022-09-03T07:36:28;19.80;47.90
69895;DHT22;57172;52.034;5.090;2022-09-03T07:39:01;20.00;47.90
69895;DHT22;57172;52.034;5.090;2022-09-03T07:41:29;20.10;48.00
69895;DHT22;57172;52.034;5.090;2022-09-03T07:43:58;20.20;47.70
69895;DHT22;57172;52.034;5.090;2022-09-03T07:46:33;20.30;47.70
69895;DHT22;57172;52.034;5.090;2022-09-03T07:49:01;20.70;48.30
69895;DHT22;57172;52.034;5.090;2022-09-03T07:51:30;21.10;48.30
69895;DHT22;57172;52.034;5.090;2022-09-03T07:53:59;21.70;47.10
69895;DHT22;57172;52.034;5.090;2022-09-03T07:56:28;22.20;46.30
69895;DHT22;57172;52.034;5.090;2022-09-03T07:58:58;22.80;45.90
69895;DHT22;57172;52.034;5.090;2022-09-03T08:01:27;23.40;45.00
69895;DHT22;57172;52.034;5.090;2022-09-03T08:03:54;24.00;43.70
69895;DHT22;57172;52.034;5.090;2022-09-03T08:06:24;24.60;42.80
69895;DHT22;57172;52.034;5.090;2022-09-03T08:09:02;25.10;41.80
69895;DHT22;57172;52.034;5.090;2022-09-03T08:11:35;25.70;40.50
69895;DHT22;57172;52.034;5.090;2022-09-03T08:14:04;26.20;39.90
69895;DHT22;57172;52.034;5.090;2022-09-03T08:16:37;26.70;39.10
69895;DHT22;57172;52.034;5.090;2022-09-03T08:19:05;27.10;38.10
69895;DHT22;57172;52.034;5.090;2022-09-03T08:21:33;27.50;38.00
69895;DHT22;57172;52.034;5.090;2022-09-03T08:24:00;28.00;37.40
69895;DHT22;57172;52.034;5.090;2022-09-03T08:26:33;28.40;36.70
69895;DHT22;57172;52.034;5.090;2022-09-03T08:29:00;28.70;36.30
69895;DHT22;57172;52.034;5.090;2022-09-03T08:31:27;29.10;35.70
69895;DHT22;57172;52.034;5.090;2022-09-03T08:33:56;29.60;35.10
69895;DHT22;57172;52.034;5.090;2022-09-03T08:36:26;30.00;34.60
69895;DHT22;57172;52.034;5.090;2022-09-03T08:38:53;30.40;34.20
69895;DHT22;57172;52.034;5.090;2022-09-03T08:44:34;31.10;32.70
69895;DHT22;57172;52.034;5.090;2022-09-03T08:54:59;32.70;31.40
69895;DHT22;57172;52.034;5.090;2022-09-03T08:57:31;33.10;30.90
69895;DHT22;57172;52.034;5.090;2022-09-03T09:00:03;33.40;30.60
69895;DHT22;57172;52.034;5.090;2022-09-03T09:22:38;35.80;27.80
69895;DHT22;57172;52.034;5.090;2022-09-03T09:25:11;36.10;27.50
69895;DHT22;57172;52.034;5.090;2022-09-03T09:27:51;36.20;27.40
69895;DHT22;57172;52.034;5.090;2022-09-03T09:30:20;36.40;26.90
69895;DHT22;57172;52.034;5.090;2022-09-03T09:32:47;36.60;26.70
69895;DHT22;57172;52.034;5.090;2022-09-03T09:35:17;36.60;26.80
69895;DHT22;57172;52.034;5.090;2022-09-03T09:37:55;36.60;26.80
69895;DHT22;57172;52.034;5.090;2022-09-03T09:40:27;36.60;26.80
69895;DHT22;57172;52.034;5.090;2022-09-03T09:43:06;36.70;26.60
69895;DHT22;57172;52.034;5.090;2022-09-03T09:45:33;36.80;26.20
69895;DHT22;57172;52.034;5.090;2022-09-03T09:48:01;36.70;26.30
69895;DHT22;57172;52.034;5.090;2022-09-03T09:50:28;36.70;26.40
69895;DHT22;57172;52.034;5.090;2022-09-03T09:53:02;36.80;26.00
69895;DHT22;57172;52.034;5.090;2022-09-03T09:55:34;36.90;26.10
69895;DHT22;57172;52.034;5.090;2022-09-03T09:58:07;36.90;26.40
69895;DHT22;57172;52.034;5.090;2022-09-03T10:00:40;37.30;26.00
69895;DHT22;57172;52.034;5.090;2022-09-03T10:03:10;37.60;25.70
69895;DHT22;57172;52.034;5.090;2022-09-03T10:05:39;37.80;25.50
69895;DHT22;57172;52.034;5.090;2022-09-03T10:08:18;38.20;25.50
69895;DHT22;57172;52.034;5.090;2022-09-03T10:10:50;38.60;24.90
69895;DHT22;57172;52.034;5.090;2022-09-03T10:26:35;39.60;24.00
69895;DHT22;57172;52.034;5.090;2022-09-03T10:29:05;40.00;23.40
69895;DHT22;57172;52.034;5.090;2022-09-03T10:37:01;40.30;23.40
69895;DHT22;57172;52.034;5.090;2022-09-03T10:39:44;40.70;23.30
69895;DHT22;57172;52.034;5.090;2022-09-03T10:45:38;41.10;22.80
69895;DHT22;57172;52.034;5.090;2022-09-03T10:51:04;41.30;22.70
69895;DHT22;57172;52.034;5.090;2022-09-03T10:54:05;41.40;22.40
69895;DHT22;57172;52.034;5.090;2022-09-03T10:56:56;41.50;22.00
69895;DHT22;57172;52.034;5.090;2022-09-03T11:05:17;41.40;22.20
69895;DHT22;57172;52.034;5.090;2022-09-03T11:07:58;41.40;22.30
69895;DHT22;57172;52.034;5.090;2022-09-03T11:10:32;41.40;22.30
69895;DHT22;57172;52.034;5.090;2022-09-03T11:13:26;41.60;22.20
69895;DHT22;57172;52.034;5.090;2022-09-03T11:15:59;41.70;22.00
69895;DHT22;57172;52.034;5.090;2022-09-03T11:18:41;41.90;22.10
69895;DHT22;57172;52.034;5.090;2022-09-03T11:21:12;42.10;21.60
69895;DHT22;57172;52.034;5.090;2022-09-03T11:23:43;42.20;21.60
69895;DHT22;57172;52.034;5.090;2022-09-03T11:26:16;42.20;21.70
69895;DHT22;57172;52.034;5.090;2022-09-03T11:29:05;42.30;21.70
69895;DHT22;57172;52.034;5.090;2022-09-03T11:31:44;42.30;21.90
69895;DHT22;57172;52.034;5.090;2022-09-03T11:34:44;42.50;21.60
69895;DHT22;57172;52.034;5.090;2022-09-03T11:40:13;42.90;21.40
69895;DHT22;57172;52.034;5.090;2022-09-03T11:42:45;43.20;21.10
69895;DHT22;57172;52.034;5.090;2022-09-03T11:47:55;42.70;21.80
69895;DHT22;57172;52.034;5.090;2022-09-03T11:50:29;42.70;21.60
69895;DHT22;57172;52.034;5.090;2022-09-03T11:55:59;42.60;21.50
69895;DHT22;57172;52.034;5.090;2022-09-03T11:58:33;42.60;21.80
69895;DHT22;57172;52.034;5.090;2022-09-03T12:01:03;42.80;21.50
69895;DHT22;57172;52.034;5.090;2022-09-03T12:03:53;42.90;21.40
69895;DHT22;57172;52.034;5.090;2022-09-03T12:09:28;43.00;21.40
69895;DHT22;57172;52.034;5.090;2022-09-03T12:17:52;43.10;21.10
69895;DHT22;57172;52.034;5.090;2022-09-03T12:20:41;43.00;21.10
69895;DHT22;57172;52.034;5.090;2022-09-03T12:23:11;43.10;21.10
69895;DHT22;57172;52.034;5.090;2022-09-03T12:25:44;43.10;21.10
69895;DHT22;57172;52.034;5.090;2022-09-03T12:28:17;43.00;21.10
69895;DHT22;57172;52.034;5.090;2022-09-03T12:30:47;43.10;21.10
69895;DHT22;57172;52.034;5.090;2022-09-03T12:33:16;43.30;20.90
69895;DHT22;57172;52.034;5.090;2022-09-03T12:35:55;43.40;20.90
69895;DHT22;57172;52.034;5.090;2022-09-03T12:38:27;43.60;21.00
69895;DHT22;57172;52.034;5.090;2022-09-03T12:41:26;43.70;20.70
69895;DHT22;57172;52.034;5.090;2022-09-03T12:43:56;43.40;20.70
69895;DHT22;57172;52.034;5.090;2022-09-03T12:46:31;43.20;20.90
69895;DHT22;57172;52.034;5.090;2022-09-03T12:49:04;43.20;21.00
69895;DHT22;57172;52.034;5.090;2022-09-03T12:52:07;43.30;20.90
69895;DHT22;57172;52.034;5.090;2022-09-03T12:54:44;43.00;20.80
69895;DHT22;57172;52.034;5.090;2022-09-03T12:57:21;42.70;21.40
69895;DHT22;57172;52.034;5.090;2022-09-03T12:59:51;42.80;21.50
69895;DHT22;57172;52.034;5.090;2022-09-03T13:02:25;43.20;21.30
69895;DHT22;57172;52.034;5.090;2022-09-03T13:04:53;43.50;21.00
69895;DHT22;57172;52.034;5.090;2022-09-03T13:07:28;43.70;20.70
69895;DHT22;57172;52.034;5.090;2022-09-03T13:10:06;43.40;20.90
69895;DHT22;57172;52.034;5.090;2022-09-03T13:12:42;43.30;21.20
69895;DHT22;57172;52.034;5.090;2022-09-03T13:15:16;43.50;21.10
69895;DHT22;57172;52.034;5.090;2022-09-03T13:18:09;43.60;21.00
69895;DHT22;57172;52.034;5.090;2022-09-03T13:23:41;43.50;20.90
69895;DHT22;57172;52.034;5.090;2022-09-03T13:29:38;42.80;21.40
69895;DHT22;57172;52.034;5.090;2022-09-03T13:32:17;42.90;21.40
69895;DHT22;57172;52.034;5.090;2022-09-03T13:34:56;43.10;21.30
69895;DHT22;57172;52.034;5.090;2022-09-03T13:40:05;42.90;20.90
69895;DHT22;57172;52.034;5.090;2022-09-03T13:42:47;42.20;21.40
69895;DHT22;57172;52.034;5.090;2022-09-03T13:45:39;42.10;21.70
69895;DHT22;57172;52.034;5.090;2022-09-03T13:48:33;42.30;21.70
69895;DHT22;57172;52.034;5.090;2022-09-03T13:54:02;42.70;21.10
69895;DHT22;57172;52.034;5.090;2022-09-03T13:56:48;42.80;21.10
69895;DHT22;57172;52.034;5.090;2022-09-03T14:02:15;42.30;21.20
69895;DHT22;57172;52.034;5.090;2022-09-03T14:07:50;42.50;21.10
69895;DHT22;57172;52.034;5.090;2022-09-03T14:10:27;42.50;21.10
69895;DHT22;57172;52.034;5.090;2022-09-03T14:15:55;42.70;21.10
69895;DHT22;57172;52.034;5.090;2022-09-03T14:24:26;42.20;21.30
69895;DHT22;57172;52.034;5.090;2022-09-03T14:26:56;41.80;21.70
69895;DHT22;57172;52.034;5.090;2022-09-03T14:29:27;41.60;22.10
69895;DHT22;57172;52.034;5.090;2022-09-03T14:32:17;41.80;21.70
69895;DHT22;57172;52.034;5.090;2022-09-03T14:40:14;42.40;21.50
69895;DHT22;57172;52.034;5.090;2022-09-03T14:45:55;42.50;21.50
69895;DHT22;57172;52.034;5.090;2022-09-03T14:51:56;42.40;21.10
69895;DHT22;57172;52.034;5.090;2022-09-03T14:57:25;41.90;21.70
69895;DHT22;57172;52.034;5.090;2022-09-03T15:00:14;41.70;21.60
69895;DHT22;57172;52.034;5.090;2022-09-03T15:05:53;41.10;22.10
69895;DHT22;57172;52.034;5.090;2022-09-03T15:08:35;40.80;22.50
69895;DHT22;57172;52.034;5.090;2022-09-03T15:11:23;40.80;22.40
69895;DHT22;57172;52.034;5.090;2022-09-03T15:16:59;39.70;23.00
69895;DHT22;57172;52.034;5.090;2022-09-03T15:25:15;39.40;23.50
69895;DHT22;57172;52.034;5.090;2022-09-03T15:27:52;39.70;23.30
69895;DHT22;57172;52.034;5.090;2022-09-03T15:30:24;39.70;23.40
69895;DHT22;57172;52.034;5.090;2022-09-03T15:33:22;39.70;23.40
69895;DHT22;57172;52.034;5.090;2022-09-03T15:36:09;39.60;23.50
69895;DHT22;57172;52.034;5.090;2022-09-03T15:41:59;39.60;23.50
69895;DHT22;57172;52.034;5.090;2022-09-03T15:44:41;39.60;23.50
69895;DHT22;57172;52.034;5.090;2022-09-03T15:53:17;39.40;23.60
69895;DHT22;57172;52.034;5.090;2022-09-03T15:56:24;39.40;23.70
69895;DHT22;57172;52.034;5.090;2022-09-03T15:58:58;39.30;23.50
69895;DHT22;57172;52.034;5.090;2022-09-03T16:06:51;38.60;24.10
69895;DHT22;57172;52.034;5.090;2022-09-03T16:09:37;38.40;24.30
69895;DHT22;57172;52.034;5.090;2022-09-03T16:12:15;38.30;24.30
69895;DHT22;57172;52.034;5.090;2022-09-03T16:14:53;38.20;24.40
69895;DHT22;57172;52.034;5.090;2022-09-03T16:17:35;37.90;24.50
69895;DHT22;57172;52.034;5.090;2022-09-03T16:20:31;37.70;24.40
69895;DHT22;57172;52.034;5.090;2022-09-03T16:23:38;37.50;24.70
69895;DHT22;57172;52.034;5.090;2022-09-03T16:26:06;37.20;25.00
69895;DHT22;57172;52.034;5.090;2022-09-03T16:28:52;37.10;25.10
69895;DHT22;57172;52.034;5.090;2022-09-03T16:31:50;36.90;25.10
69895;DHT22;57172;52.034;5.090;2022-09-03T16:34:33;36.70;25.50
69895;DHT22;57172;52.034;5.090;2022-09-03T16:59:24;35.80;25.90
69895;DHT22;57172;52.034;5.090;2022-09-03T17:10:38;35.40;26.30
69895;DHT22;57172;52.034;5.090;2022-09-03T17:19:04;35.40;27.20
69895;DHT22;57172;52.034;5.090;2022-09-03T17:30:02;35.50;27.80
69895;DHT22;57172;52.034;5.090;2022-09-03T17:49:40;32.40;31.10
69895;DHT22;57172;52.034;5.090;2022-09-03T17:52:19;32.00;31.70
69895;DHT22;57172;52.034;5.090;2022-09-03T17:54:50;31.70;32.30
69895;DHT22;57172;52.034;5.090;2022-09-03T17:57:26;31.40;32.70
69895;DHT22;57172;52.034;5.090;2022-09-03T18:00:04;31.10;33.00
69895;DHT22;57172;52.034;5.090;2022-09-03T18:02:49;30.90;33.40
69895;DHT22;57172;52.034;5.090;2022-09-03T18:05:18;30.60;33.90
69895;DHT22;57172;52.034;5.090;2022-09-03T18:16:13;29.90;35.10
69895;DHT22;57172;52.034;5.090;2022-09-03T18:18:49;29.60;35.30
69895;DHT22;57172;52.034;5.090;2022-09-03T18:21:28;29.40;35.50
69895;DHT22;57172;52.034;5.090;2022-09-03T18:24:44;29.30;35.80
69895;DHT22;57172;52.034;5.090;2022-09-03T18:27:45;29.00;36.00
69895;DHT22;57172;52.034;5.090;2022-09-03T18:30:33;28.80;36.30
69895;DHT22;57172;52.034;5.090;2022-09-03T18:33:23;28.60;36.70
69895;DHT22;57172;52.034;5.090;2022-09-03T18:36:11;28.40;37.10
69895;DHT22;57172;52.034;5.090;2022-09-03T18:39:06;28.30;37.50
69895;DHT22;57172;52.034;5.090;2022-09-03T18:55:16;27.40;39.10
69895;DHT22;57172;52.034;5.090;2022-09-03T18:58:06;27.20;39.80
69895;DHT22;57172;52.034;5.090;2022-09-03T19:04:29;27.10;40.10
69895;DHT22;57172;52.034;5.090;2022-09-03T19:07:22;26.90;40.10
69895;DHT22;57172;52.034;5.090;2022-09-03T19:10:16;26.70;40.30
69895;DHT22;57172;52.034;5.090;2022-09-03T19:13:31;26.60;40.50
69895;DHT22;57172;52.034;5.090;2022-09-03T19:16:27;26.50;40.70
69895;DHT22;57172;52.034;5.090;2022-09-03T19:20:07;26.40;41.10
69895;DHT22;57172;52.034;5.090;2022-09-03T19:22:36;26.30;41.30
69895;DHT22;57172;52.034;5.090;2022-09-03T19:25:23;26.20;41.20
69895;DHT22;57172;52.034;5.090;2022-09-03T19:28:20;26.00;41.50
69895;DHT22;57172;52.034;5.090;2022-09-03T19:45:58;25.30;43.20
69895;DHT22;57172;52.034;5.090;2022-09-03T19:52:18;25.20;44.00
69895;DHT22;57172;52.034;5.090;2022-09-03T19:55:05;25.10;44.30
69895;DHT22;57172;52.034;5.090;2022-09-03T19:58:00;25.00;44.30
69895;DHT22;57172;52.034;5.090;2022-09-03T20:01:05;24.90;44.50
69895;DHT22;57172;52.034;5.090;2022-09-03T20:03:54;24.80;44.50
69895;DHT22;57172;52.034;5.090;2022-09-03T20:06:40;24.70;44.60
69895;DHT22;57172;52.034;5.090;2022-09-03T20:09:29;24.60;44.60
69895;DHT22;57172;52.034;5.090;2022-09-03T20:12:16;24.50;44.80
69895;DHT22;57172;52.034;5.090;2022-09-03T20:14:45;24.50;44.80
69895;DHT22;57172;52.034;5.090;2022-09-03T20:18:08;24.40;45.20
69895;DHT22;57172;52.034;5.090;2022-09-03T20:20:33;24.40;45.50
69895;DHT22;57172;52.034;5.090;2022-09-03T20:23:09;24.30;45.50
69895;DHT22;57172;52.034;5.090;2022-09-03T20:31:22;24.10;46.00
69895;DHT22;57172;52.034;5.090;2022-09-03T20:50:22;23.70;46.50
69895;DHT22;57172;52.034;5.090;2022-09-03T20:53:10;23.70;46.80
69895;DHT22;57172;52.034;5.090;2022-09-03T20:55:49;23.60;46.80
69895;DHT22;57172;52.034;5.090;2022-09-03T21:01:09;23.50;47.10
69895;DHT22;57172;52.034;5.090;2022-09-03T21:03:47;23.50;47.20
69895;DHT22;57172;52.034;5.090;2022-09-03T21:11:57;23.30;47.60
69895;DHT22;57172;52.034;5.090;2022-09-03T21:14:45;23.30;47.80
69895;DHT22;57172;52.034;5.090;2022-09-03T21:25:08;23.00;48.20
69895;DHT22;57172;52.034;5.090;2022-09-03T21:27:44;23.00;48.40
69895;DHT22;57172;52.034;5.090;2022-09-03T21:30:15;22.90;48.60
69895;DHT22;57172;52.034;5.090;2022-09-03T21:32:57;22.90;48.80
69895;DHT22;57172;52.034;5.090;2022-09-03T21:38:06;22.80;48.90
69895;DHT22;57172;52.034;5.090;2022-09-03T21:40:39;22.70;49.20
69895;DHT22;57172;52.034;5.090;2022-09-03T21:43:31;22.70;49.40
69895;DHT22;57172;52.034;5.090;2022-09-03T21:46:12;22.60;49.70
69895;DHT22;57172;52.034;5.090;2022-09-03T21:48:59;22.60;49.80
69895;DHT22;57172;52.034;5.090;2022-09-03T21:54:20;22.60;50.00
69895;DHT22;57172;52.034;5.090;2022-09-03T22:02:29;22.50;50.30
69895;DHT22;57172;52.034;5.090;2022-09-03T22:05:02;22.50;50.30
69895;DHT22;57172;52.034;5.090;2022-09-03T22:15:45;22.50;50.70
69895;DHT22;57172;52.034;5.090;2022-09-03T22:18:28;22.40;50.80
69895;DHT22;57172;52.034;5.090;2022-09-03T22:21:12;22.40;51.00